createdAt,value
2023-03-07T00:00:00.266Z,5.90
2023-03-07T00:02:27.042Z,5.90
2023-03-07T00:04:53.616Z,5.80
2023-03-07T00:07:20.330Z,5.70
2023-03-07T00:09:48.047Z,5.20
2023-03-07T00:12:14.719Z,5.70
2023-03-07T00:14:41.423Z,5.60
2023-03-07T00:17:07.982Z,6.50
2023-03-07T00:19:34.537Z,5.60
2023-03-07T00:22:01.174Z,6.30
2023-03-07T00:24:27.771Z,5.90
2023-03-07T00:26:54.298Z,6.50
2023-03-07T00:29:21.188Z,6.40
2023-03-07T00:31:49.311Z,5.90
2023-03-07T00:34:15.931Z,5.70
2023-03-07T00:36:42.626Z,5.80
2023-03-07T00:39:09.279Z,5.50
2023-03-07T00:41:35.884Z,6.50
2023-03-07T00:44:02.910Z,5.80
2023-03-07T00:46:29.674Z,5.60
2023-03-07T00:48:56.333Z,6.10
2023-03-07T00:51:24.147Z,5.70
2023-03-07T00:53:51.429Z,5.50
2023-03-07T00:56:25.858Z,5.70
2023-03-07T00:58:52.971Z,5.90
2023-03-07T01:01:25.405Z,5.80
2023-03-07T01:03:53.939Z,5.80
2023-03-07T01:06:28.904Z,5.80
2023-03-07T01:09:02.379Z,5.50
2023-03-07T01:11:31.104Z,5.70
2023-03-07T01:14:01.005Z,5.20
2023-03-07T01:16:38.475Z,6.10
2023-03-07T01:19:12.665Z,5.90
2023-03-07T01:21:42.509Z,5.00
2023-03-07T01:24:14.187Z,5.70
2023-03-07T01:26:41.276Z,5.40
2023-03-07T01:29:11.371Z,5.40
2023-03-07T01:31:38.184Z,5.20
2023-03-07T01:34:05.913Z,4.90
2023-03-07T01:36:36.354Z,5.40
2023-03-07T01:39:14.299Z,5.10
2023-03-07T01:41:46.380Z,4.80
2023-03-07T01:44:21.571Z,4.90
2023-03-07T01:46:54.463Z,5.20
2023-03-07T01:49:30.098Z,5.00
2023-03-07T01:52:13.131Z,5.00
2023-03-07T01:54:50.358Z,5.10
2023-03-07T01:57:25.111Z,4.70
2023-03-07T01:59:56.382Z,5.10
2023-03-07T02:02:24.716Z,5.00
2023-03-07T02:05:13.841Z,5.40
2023-03-07T02:07:47.281Z,4.90
2023-03-07T02:10:16.916Z,4.70
2023-03-07T02:12:44.178Z,4.80
2023-03-07T02:15:13.537Z,4.80
2023-03-07T02:17:42.162Z,4.80
2023-03-07T02:20:40.664Z,4.80
2023-03-07T02:23:29.384Z,4.30
2023-03-07T02:26:14.983Z,5.10
2023-03-07T02:28:42.813Z,5.00
2023-03-07T02:31:11.621Z,4.70
2023-03-07T02:33:38.391Z,4.40
2023-03-07T02:36:12.532Z,4.70
2023-03-07T02:38:45.966Z,4.60
2023-03-07T02:41:14.573Z,4.40
2023-03-07T02:43:41.245Z,4.80
2023-03-07T02:46:08.836Z,4.40
2023-03-07T02:48:35.530Z,4.10
2023-03-07T02:51:02.533Z,4.90
2023-03-07T02:53:29.391Z,4.80
2023-03-07T02:55:56.008Z,4.70
2023-03-07T02:58:22.780Z,4.80
2023-03-07T03:00:49.397Z,4.40
2023-03-07T03:03:16.395Z,4.40
2023-03-07T03:05:42.970Z,4.40
2023-03-07T03:08:09.673Z,4.60
2023-03-07T03:10:36.202Z,4.70
2023-03-07T03:13:03.152Z,4.40
2023-03-07T03:15:30.216Z,4.90
2023-03-07T03:17:57.021Z,4.80
2023-03-07T03:20:25.359Z,4.90
2023-03-07T03:22:52.994Z,4.80
2023-03-07T03:25:23.225Z,4.90
2023-03-07T03:27:50.997Z,4.50
2023-03-07T03:30:18.670Z,4.60
2023-03-07T03:32:45.481Z,4.90
2023-03-07T03:35:14.566Z,4.70
2023-03-07T03:37:41.727Z,4.40
2023-03-07T03:40:14.573Z,4.30
2023-03-07T03:42:43.318Z,4.80
2023-03-07T03:45:11.734Z,4.20
2023-03-07T03:47:38.701Z,5.00
2023-03-07T03:50:06.198Z,4.80
2023-03-07T03:52:36.405Z,4.50
2023-03-07T03:55:04.395Z,4.30
2023-03-07T03:57:31.130Z,4.40
2023-03-07T03:59:57.827Z,4.50
2023-03-07T04:02:24.798Z,4.70
2023-03-07T04:04:51.705Z,4.20
2023-03-07T04:07:18.307Z,4.90
2023-03-07T04:09:45.586Z,3.80
2023-03-07T04:12:12.405Z,4.20
2023-03-07T04:14:38.986Z,4.50
2023-03-07T04:17:05.703Z,4.10
2023-03-07T04:19:33.307Z,4.40
2023-03-07T04:22:00.333Z,4.70
2023-03-07T04:24:27.120Z,4.80
2023-03-07T04:26:53.728Z,4.80
2023-03-07T04:29:21.526Z,5.20
2023-03-07T04:31:54.887Z,4.80
2023-03-07T04:34:21.857Z,4.70
2023-03-07T04:36:48.571Z,5.30
2023-03-07T04:39:15.296Z,5.20
2023-03-07T04:41:42.272Z,4.70
2023-03-07T04:44:31.248Z,4.80
2023-03-07T04:46:57.799Z,4.60
2023-03-07T04:49:24.509Z,5.20
2023-03-07T04:51:51.260Z,4.90
2023-03-07T04:54:18.721Z,4.60
2023-03-07T04:56:46.832Z,4.80
2023-03-07T04:59:13.473Z,5.30
2023-03-07T05:01:40.859Z,4.90
2023-03-07T05:04:07.587Z,4.90
2023-03-07T05:06:34.495Z,5.30
2023-03-07T05:09:01.661Z,4.90
2023-03-07T05:11:28.730Z,5.40
2023-03-07T05:13:55.851Z,4.80
2023-03-07T05:16:23.025Z,5.10
2023-03-07T05:18:50.126Z,4.80
2023-03-07T05:21:16.833Z,6.20
2023-03-07T05:23:43.513Z,4.80
2023-03-07T05:26:11.582Z,4.80
2023-03-07T05:28:38.373Z,5.50
2023-03-07T05:31:05.393Z,5.00
2023-03-07T05:33:32.128Z,5.00
2023-03-07T05:36:01.412Z,5.30
2023-03-07T05:38:28.881Z,5.20
2023-03-07T05:40:55.576Z,6.10
2023-03-07T05:43:22.263Z,5.50
2023-03-07T05:45:50.844Z,4.90
2023-03-07T05:48:17.609Z,5.20
2023-03-07T05:50:44.168Z,5.30
2023-03-07T05:53:10.885Z,5.20
2023-03-07T05:55:37.429Z,5.10
2023-03-07T05:58:04.534Z,5.30
2023-03-07T06:00:31.924Z,5.60
2023-03-07T06:03:05.337Z,5.00
2023-03-07T06:05:32.164Z,5.00
2023-03-07T06:07:58.960Z,5.20
2023-03-07T06:10:26.146Z,5.10
2023-03-07T06:12:55.946Z,5.30
2023-03-07T06:15:24.765Z,4.80
2023-03-07T06:17:56.239Z,5.10
2023-03-07T06:20:22.853Z,5.40
2023-03-07T06:22:50.305Z,5.10
2023-03-07T06:25:17.095Z,5.00
2023-03-07T06:27:44.224Z,4.70
2023-03-07T06:30:12.619Z,5.30
2023-03-07T06:32:39.713Z,5.50
2023-03-07T06:35:07.024Z,5.20
2023-03-07T06:37:33.970Z,5.60
2023-03-07T06:40:05.783Z,5.10
2023-03-07T06:42:33.175Z,5.20
2023-03-07T06:44:59.838Z,5.70
2023-03-07T06:47:28.595Z,5.40
2023-03-07T06:49:56.426Z,5.10
2023-03-07T06:52:23.639Z,5.30
2023-03-07T06:54:51.257Z,5.60
2023-03-07T06:57:18.077Z,5.30
2023-03-07T06:59:44.809Z,5.70
2023-03-07T07:02:14.761Z,5.00
2023-03-07T07:04:41.670Z,5.30
2023-03-07T07:07:08.555Z,5.50
2023-03-07T07:09:35.612Z,5.50
2023-03-07T07:12:04.900Z,5.90
2023-03-07T07:14:33.415Z,6.80
2023-03-07T07:17:01.091Z,5.70
2023-03-07T07:19:28.250Z,5.50
2023-03-07T07:21:55.845Z,5.90
2023-03-07T07:24:23.668Z,6.10
2023-03-07T07:26:51.229Z,5.30
2023-03-07T07:29:17.867Z,5.20
2023-03-07T07:31:45.000Z,5.40
2023-03-07T07:34:12.322Z,4.90
2023-03-07T07:36:39.069Z,5.80
2023-03-07T07:39:07.034Z,4.70
2023-03-07T07:41:34.911Z,5.10
2023-03-07T07:44:01.893Z,5.20
2023-03-07T07:46:35.478Z,5.60
2023-03-07T07:49:03.032Z,5.20
2023-03-07T07:51:30.249Z,4.90
2023-03-07T07:53:56.939Z,5.60
2023-03-07T07:56:23.742Z,5.40
2023-03-07T07:58:50.350Z,5.40
2023-03-07T08:01:21.813Z,2.10
2023-03-07T08:03:48.700Z,4.80
2023-03-07T08:06:21.714Z,4.90
2023-03-07T08:08:49.114Z,4.20
2023-03-07T08:11:17.796Z,4.10
2023-03-07T08:13:44.894Z,3.00
2023-03-07T08:16:15.332Z,4.00
2023-03-07T08:18:43.231Z,3.70
2023-03-07T08:21:10.128Z,4.40
2023-03-07T08:23:37.005Z,4.30
2023-03-07T08:26:06.451Z,4.50
2023-03-07T08:28:33.801Z,4.40
2023-03-07T08:31:11.347Z,4.50
2023-03-07T08:33:39.170Z,4.70
2023-03-07T08:36:06.999Z,4.40
2023-03-07T08:38:34.455Z,4.40
2023-03-07T08:41:08.146Z,3.20
2023-03-07T08:43:37.011Z,3.00
2023-03-07T08:46:04.728Z,4.40
2023-03-07T08:48:31.933Z,4.40
2023-03-07T08:51:09.294Z,6.10
2023-03-07T08:53:36.998Z,4.20
2023-03-07T08:56:11.601Z,4.10
2023-03-07T08:58:38.833Z,4.50
2023-03-07T09:01:07.248Z,4.50
2023-03-07T09:03:35.188Z,4.60
2023-03-07T09:06:03.182Z,5.30
2023-03-07T09:08:29.921Z,5.00
2023-03-07T09:11:00.909Z,5.20
2023-03-07T09:13:27.632Z,5.30
2023-03-07T09:15:54.229Z,5.20
2023-03-07T09:18:23.165Z,5.70
2023-03-07T09:20:49.958Z,4.90
2023-03-07T09:23:16.682Z,5.60
2023-03-07T09:25:44.516Z,5.40
2023-03-07T09:28:11.408Z,5.60
2023-03-07T09:30:38.272Z,5.90
2023-03-07T09:33:05.321Z,6.60
2023-03-07T09:35:32.286Z,5.60
2023-03-07T09:37:59.202Z,6.10
2023-03-07T09:40:28.085Z,6.00
2023-03-07T09:43:20.895Z,6.00
2023-03-07T09:46:24.362Z,6.30
2023-03-07T09:49:01.013Z,6.00
2023-03-07T09:51:42.815Z,5.70
2023-03-07T09:54:23.495Z,5.90
2023-03-07T09:56:57.071Z,5.80
2023-03-07T09:59:44.429Z,4.70
2023-03-07T10:02:37.574Z,6.20
2023-03-07T10:05:26.184Z,6.00
2023-03-07T10:07:53.558Z,5.50
2023-03-07T10:10:38.084Z,5.30
2023-03-07T10:13:26.081Z,5.60
2023-03-07T10:15:57.415Z,5.80
2023-03-07T10:18:48.743Z,6.30
2023-03-07T10:21:40.845Z,5.80
2023-03-07T10:24:33.657Z,6.00
2023-03-07T10:27:07.154Z,5.90
2023-03-07T10:29:46.675Z,5.60
2023-03-07T10:32:19.875Z,6.00
2023-03-07T10:34:54.269Z,6.20
2023-03-07T10:37:29.567Z,8.10
2023-03-07T10:39:57.330Z,4.30
2023-03-07T10:42:27.207Z,8.40
2023-03-07T10:44:53.956Z,7.00
2023-03-07T10:47:25.492Z,6.00
2023-03-07T10:50:19.521Z,5.60
2023-03-07T10:52:55.678Z,6.20
2023-03-07T10:55:40.079Z,6.00
2023-03-07T10:58:27.014Z,5.70
2023-03-07T11:01:08.134Z,5.20
2023-03-07T11:04:21.529Z,4.70
2023-03-07T11:06:57.978Z,5.60
2023-03-07T11:09:38.656Z,5.50
2023-03-07T11:12:05.156Z,5.80
2023-03-07T11:14:50.620Z,5.60
2023-03-07T11:17:24.238Z,4.50
2023-03-07T11:19:56.584Z,5.40
2023-03-07T11:22:38.731Z,4.90
2023-03-07T11:25:21.338Z,5.40
2023-03-07T11:27:57.795Z,5.20
2023-03-07T11:30:43.283Z,5.40
2023-03-07T11:33:18.652Z,3.50
2023-03-07T11:36:36.708Z,5.10
2023-03-07T11:39:48.569Z,5.20
2023-03-07T11:42:33.719Z,5.70
2023-03-07T11:45:41.201Z,7.50
2023-03-07T11:48:31.733Z,5.70
2023-03-07T11:50:59.793Z,4.90
2023-03-07T11:53:59.443Z,5.20
2023-03-07T11:56:33.764Z,5.20
2023-03-07T11:59:24.973Z,5.20
2023-03-07T12:01:57.055Z,4.00
2023-03-07T12:04:54.376Z,5.50
2023-03-07T12:08:03.134Z,5.20
2023-03-07T12:10:35.476Z,6.90
2023-03-07T12:13:17.460Z,6.00
2023-03-07T12:16:05.867Z,6.00
2023-03-07T12:19:39.658Z,4.80
2023-03-07T12:22:22.901Z,5.40
2023-03-07T12:25:09.538Z,3.00
2023-03-07T12:27:52.111Z,4.90
2023-03-07T12:30:50.526Z,4.20
2023-03-07T12:33:27.606Z,5.10
2023-03-07T12:36:04.853Z,4.40
2023-03-07T12:38:41.502Z,5.70
2023-03-07T12:41:23.521Z,5.60
2023-03-07T12:43:58.578Z,4.90
2023-03-07T12:46:47.968Z,6.10
2023-03-07T12:49:49.724Z,4.90
2023-03-07T12:52:43.957Z,5.10
2023-03-07T12:55:27.904Z,5.20
2023-03-07T12:58:49.257Z,4.80
2023-03-07T13:01:27.984Z,4.70
2023-03-07T13:04:33.181Z,4.60
2023-03-07T13:07:21.225Z,5.30
2023-03-07T13:09:50.921Z,4.80
2023-03-07T13:12:20.390Z,6.10
2023-03-07T13:14:56.185Z,5.30
2023-03-07T13:17:31.747Z,5.30
2023-03-07T13:20:19.960Z,4.70
2023-03-07T13:22:46.511Z,3.80
2023-03-07T13:25:27.187Z,3.70
2023-03-07T13:28:00.229Z,5.00
2023-03-07T13:30:30.018Z,5.60
2023-03-07T13:33:01.717Z,4.80
2023-03-07T13:35:28.496Z,5.40
2023-03-07T13:38:03.740Z,5.50
2023-03-07T13:40:54.201Z,4.50
2023-03-07T13:43:24.996Z,3.50
2023-03-07T13:45:58.004Z,4.70
2023-03-07T13:48:30.704Z,8.00
2023-03-07T13:51:00.431Z,5.40
2023-03-07T13:53:46.633Z,5.00
2023-03-07T13:56:15.937Z,4.90
2023-03-07T13:58:58.562Z,5.60
2023-03-07T14:01:46.773Z,5.30
2023-03-07T14:04:54.492Z,4.40
2023-03-07T14:07:34.925Z,5.30
2023-03-07T14:10:23.304Z,6.60
2023-03-07T14:13:29.839Z,5.50
2023-03-07T14:16:18.595Z,5.60
2023-03-07T14:18:53.676Z,5.30
2023-03-07T14:21:48.073Z,2.80
2023-03-07T14:24:46.314Z,5.10
2023-03-07T14:27:15.466Z,5.20
2023-03-07T14:29:56.763Z,4.40
2023-03-07T14:32:30.541Z,4.90
2023-03-07T14:34:59.222Z,5.00
2023-03-07T14:37:29.981Z,5.10
2023-03-07T14:39:59.664Z,4.90
2023-03-07T14:42:57.194Z,4.70
2023-03-07T14:45:49.763Z,4.90
2023-03-07T14:48:44.634Z,6.20
2023-03-07T14:51:20.498Z,5.30
2023-03-07T14:53:48.813Z,4.90
2023-03-07T14:56:23.808Z,5.60
2023-03-07T14:59:00.783Z,5.20
2023-03-07T15:01:38.877Z,5.50
2023-03-07T15:04:27.931Z,5.30
2023-03-07T15:06:58.642Z,4.80
2023-03-07T15:09:26.622Z,4.90
2023-03-07T15:12:16.786Z,5.30
2023-03-07T15:14:55.201Z,4.60
2023-03-07T15:17:43.623Z,5.00
2023-03-07T15:20:24.556Z,4.90
2023-03-07T15:23:05.082Z,4.30
2023-03-07T15:25:33.199Z,4.40
2023-03-07T15:28:16.343Z,4.80
2023-03-07T15:30:53.322Z,4.80
2023-03-07T15:33:20.428Z,4.60
2023-03-07T15:36:08.344Z,5.20
2023-03-07T15:38:35.538Z,4.60
2023-03-07T15:41:02.107Z,4.80
2023-03-07T15:43:35.455Z,4.70
2023-03-07T15:46:16.686Z,4.30
2023-03-07T15:48:54.071Z,3.60
2023-03-07T15:51:27.314Z,4.50
2023-03-07T15:54:01.326Z,5.60
2023-03-07T15:56:36.317Z,4.60
2023-03-07T15:59:11.807Z,4.40
2023-03-07T16:01:38.483Z,4.80
2023-03-07T16:04:05.181Z,4.20
2023-03-07T16:06:38.051Z,4.30
2023-03-07T16:09:06.296Z,4.70
2023-03-07T16:11:33.786Z,4.20
2023-03-07T16:14:00.575Z,4.40
2023-03-07T16:16:30.707Z,4.40
2023-03-07T16:18:58.330Z,4.10
2023-03-07T16:21:26.342Z,4.80
2023-03-07T16:23:52.963Z,4.30
2023-03-07T16:26:24.704Z,4.60
2023-03-07T16:28:52.962Z,4.70
2023-03-07T16:31:21.398Z,4.40
2023-03-07T16:33:48.784Z,4.20
2023-03-07T16:36:16.416Z,3.30
2023-03-07T16:38:43.378Z,4.60
2023-03-07T16:41:22.228Z,4.70
2023-03-07T16:43:57.380Z,4.30
2023-03-07T16:46:25.051Z,4.20
2023-03-07T16:48:51.601Z,4.70
2023-03-07T16:51:22.114Z,4.90
2023-03-07T16:53:50.383Z,4.40
2023-03-07T16:56:25.538Z,4.60
2023-03-07T16:58:53.047Z,5.50
2023-03-07T17:01:19.693Z,5.00
2023-03-07T17:03:46.288Z,5.30
2023-03-07T17:06:16.322Z,5.20
2023-03-07T17:08:44.641Z,5.10
2023-03-07T17:11:22.813Z,4.80
2023-03-07T17:13:54.733Z,4.60
2023-03-07T17:16:21.950Z,5.10
2023-03-07T17:18:48.614Z,4.90
2023-03-07T17:21:19.674Z,4.90
2023-03-07T17:23:48.912Z,4.40
2023-03-07T17:26:27.726Z,4.20
2023-03-07T17:28:57.928Z,4.30
2023-03-07T17:31:24.712Z,4.00
2023-03-07T17:33:51.336Z,5.50
2023-03-07T17:36:17.993Z,5.10
2023-03-07T17:38:44.641Z,5.30
2023-03-07T17:41:11.433Z,5.80
2023-03-07T17:43:37.990Z,4.20
2023-03-07T17:46:10.312Z,4.90
2023-03-07T17:48:37.971Z,5.70
2023-03-07T17:51:11.617Z,5.40
2023-03-07T17:53:38.668Z,6.10
2023-03-07T17:56:10.840Z,6.20
2023-03-07T17:58:41.120Z,5.50
2023-03-07T18:01:11.125Z,5.20
2023-03-07T18:03:39.009Z,5.50
2023-03-07T18:06:06.009Z,5.40
2023-03-07T18:08:32.976Z,5.30
2023-03-07T18:11:07.842Z,5.70
2023-03-07T18:13:35.469Z,5.30
2023-03-07T18:16:03.124Z,4.90
2023-03-07T18:18:35.175Z,5.60
2023-03-07T18:21:15.977Z,4.80
2023-03-07T18:23:43.099Z,5.60
2023-03-07T18:26:16.429Z,5.10
2023-03-07T18:28:45.826Z,4.90
2023-03-07T18:31:18.710Z,5.30
2023-03-07T18:33:51.066Z,5.40
2023-03-07T18:36:19.842Z,5.10
2023-03-07T18:38:47.344Z,5.00
2023-03-07T18:41:21.359Z,5.10
2023-03-07T18:43:48.650Z,5.90
2023-03-07T18:46:19.325Z,5.70
2023-03-07T18:48:46.772Z,5.70
2023-03-07T18:51:24.937Z,5.50
2023-03-07T18:53:54.685Z,5.70
2023-03-07T18:56:21.786Z,5.70
2023-03-07T18:58:49.171Z,5.80
2023-03-07T19:01:20.692Z,5.90
2023-03-07T19:03:50.845Z,6.20
2023-03-07T19:06:22.085Z,6.10
2023-03-07T19:08:49.487Z,6.90
2023-03-07T19:11:16.341Z,6.80
2023-03-07T19:13:44.059Z,6.40
2023-03-07T19:16:16.676Z,6.70
2023-03-07T19:18:43.791Z,6.60
2023-03-07T19:21:19.272Z,6.60
2023-03-07T19:23:48.361Z,6.50
2023-03-07T19:26:18.438Z,7.20
2023-03-07T19:28:47.186Z,7.50
2023-03-07T19:31:31.292Z,6.90
2023-03-07T19:33:58.990Z,7.20
2023-03-07T19:36:29.240Z,7.00
2023-03-07T19:38:59.238Z,7.20
2023-03-07T19:41:29.022Z,7.10
2023-03-07T19:43:58.193Z,6.10
2023-03-07T19:46:25.476Z,6.80
2023-03-07T19:48:52.175Z,6.00
2023-03-07T19:51:25.296Z,6.40
2023-03-07T19:53:54.312Z,6.50
2023-03-07T19:56:29.664Z,6.20
2023-03-07T19:58:59.010Z,5.80
2023-03-07T20:01:28.074Z,5.90
2023-03-07T20:03:56.884Z,5.40
2023-03-07T20:06:29.883Z,5.90
2023-03-07T20:08:58.294Z,6.40
2023-03-07T20:11:31.620Z,6.20
2023-03-07T20:14:03.484Z,5.50
2023-03-07T20:16:31.269Z,6.50
2023-03-07T20:19:02.487Z,6.50
2023-03-07T20:21:30.043Z,6.10
2023-03-07T20:23:59.787Z,5.70
2023-03-07T20:26:31.838Z,5.80
2023-03-07T20:29:00.163Z,5.90
2023-03-07T20:31:28.252Z,5.30
2023-03-07T20:33:57.031Z,5.60
2023-03-07T20:36:36.053Z,5.80
2023-03-07T20:39:07.909Z,6.20
2023-03-07T20:41:35.347Z,5.10
2023-03-07T20:44:05.391Z,5.70
2023-03-07T20:46:33.769Z,5.50
2023-03-07T20:49:01.860Z,5.40
2023-03-07T20:51:33.260Z,5.70
2023-03-07T20:54:07.072Z,5.90
2023-03-07T20:56:36.480Z,5.80
2023-03-07T20:59:04.334Z,5.80
2023-03-07T21:01:33.698Z,5.80
2023-03-07T21:04:06.248Z,5.40
2023-03-07T21:06:40.064Z,6.00
2023-03-07T21:09:10.127Z,5.40
2023-03-07T21:11:40.268Z,5.10
2023-03-07T21:14:07.586Z,5.50
2023-03-07T21:16:34.832Z,6.10
2023-03-07T21:19:04.219Z,4.90
2023-03-07T21:21:33.358Z,5.50
2023-03-07T21:24:00.328Z,6.20
2023-03-07T21:26:36.194Z,5.80
2023-03-07T21:29:03.819Z,5.50
2023-03-07T21:31:33.843Z,5.90
2023-03-07T21:34:04.021Z,6.10
2023-03-07T21:36:31.479Z,6.00
2023-03-07T21:39:00.158Z,6.10
2023-03-07T21:41:28.913Z,6.80
2023-03-07T21:43:57.066Z,5.40
2023-03-07T21:46:24.630Z,5.60
2023-03-07T21:48:51.587Z,6.20
2023-03-07T21:51:19.016Z,6.10
2023-03-07T21:53:45.577Z,5.80
2023-03-07T21:56:19.221Z,5.20
2023-03-07T21:58:50.263Z,5.70
2023-03-07T22:01:24.434Z,6.30
2023-03-07T22:03:53.643Z,6.50
2023-03-07T22:06:20.606Z,5.70
2023-03-07T22:08:47.262Z,5.60
2023-03-07T22:11:14.209Z,5.30
2023-03-07T22:13:41.824Z,6.90
2023-03-07T22:16:13.954Z,6.20
2023-03-07T22:18:40.559Z,6.30
2023-03-07T22:21:14.181Z,6.20
2023-03-07T22:23:41.709Z,6.10
2023-03-07T22:26:10.660Z,5.60
2023-03-07T22:28:38.011Z,5.50
2023-03-07T22:31:09.378Z,6.10
2023-03-07T22:33:36.236Z,5.80
2023-03-07T22:36:06.309Z,5.90
2023-03-07T22:38:33.073Z,5.80
2023-03-07T22:41:09.721Z,6.20
2023-03-07T22:43:37.537Z,5.80
2023-03-07T22:46:05.703Z,5.90
2023-03-07T22:48:33.001Z,5.50
2023-03-07T22:51:00.450Z,6.60
2023-03-07T22:53:32.245Z,6.50
2023-03-07T22:55:59.951Z,6.60
2023-03-07T22:58:28.041Z,6.20
2023-03-07T23:00:54.924Z,5.90
2023-03-07T23:03:21.602Z,7.00
2023-03-07T23:05:48.182Z,6.70
2023-03-07T23:08:14.789Z,6.00
2023-03-07T23:10:41.441Z,5.90
2023-03-07T23:13:08.019Z,6.10
2023-03-07T23:15:34.594Z,6.20
2023-03-07T23:18:01.185Z,6.40
2023-03-07T23:20:29.054Z,5.20
2023-03-07T23:22:55.655Z,4.80
2023-03-07T23:25:22.256Z,5.80
2023-03-07T23:27:48.946Z,6.20
2023-03-07T23:30:17.447Z,5.70
2023-03-07T23:32:44.541Z,5.90
2023-03-07T23:35:11.764Z,6.30
2023-03-07T23:37:38.370Z,5.70
2023-03-07T23:40:05.667Z,6.20
2023-03-07T23:42:32.279Z,6.40
2023-03-07T23:44:58.911Z,5.50
2023-03-07T23:47:25.573Z,5.00
2023-03-07T23:49:52.162Z,6.20
2023-03-07T23:52:18.888Z,5.50
2023-03-07T23:54:45.572Z,6.30
2023-03-07T23:57:12.186Z,5.60
2023-03-07T23:59:38.749Z,6.30
